WetterOnline ( https://www.wetteronline.de )

Wetter aktuell Mühldorf

Aktuelles Wetter: Mühldorf am Inn (410m)

6-stündlich | Neueste Meldungen
Ortszeit Temperatur Wetter
Mo, 09.12. 19:00 4.7° C wolkig
Mo, 09.12. 13:00 9.2° C bedeckt
Mo, 09.12. 7:00 3.9° C bedeckt
Mo, 09.12. 1:00 3.3° C bedeckt
So, 08.12. 19:00 3.1° C wolkig
So, 08.12. 13:00 8.6° C leicht bewölkt
So, 08.12. 7:00 -0.7° C wolkig
So, 08.12. 1:00 2.3° C bedeckt
Ortszeit Temperatur Wetter
Mo, 09.12. 19:30 3.1° C bedeckt
Mo, 09.12. 19:20 3.1° C bedeckt
Mo, 09.12. 19:10 5.0° C wolkig
Mo, 09.12. 19:00 4.7° C wolkig
Mo, 09.12. 18:50 4.7° C wolkig
Mo, 09.12. 18:40 4.2° C wolkig
Mo, 09.12. 18:30 5.2° C bewölkt
Mo, 09.12. 18:00 5.3° C wolkig
Mo, 09.12. 17:30 5.0° C wolkig
Mo, 09.12. 17:00 6.7° C bewölkt
Mo, 09.12. 16:30 6.8° C bedeckt
Ortszeit Relative Feuchte Sichtweite
Mo, 09.12. 19:00 77% >70 km
Mo, 09.12. 13:00 60% 65 km
Mo, 09.12. 7:00 97% 30 km
Mo, 09.12. 1:00 91% 40 km
So, 08.12. 19:00 85% 45 km
So, 08.12. 13:00 65% 65 km
So, 08.12. 7:00 100% 4.5 km
So, 08.12. 1:00 99% 19 km
Ortszeit Relative Feuchte Sichtweite
Mo, 09.12. 19:30 82% >70 km
Mo, 09.12. 19:20 82% -
Mo, 09.12. 19:10 75% -
Mo, 09.12. 19:00 77% >70 km
Mo, 09.12. 18:50 77% -
Mo, 09.12. 18:40 78% -
Mo, 09.12. 18:30 76% >70 km
Mo, 09.12. 18:00 76% >70 km
Mo, 09.12. 17:30 76% >70 km
Mo, 09.12. 17:00 68% >70 km
Mo, 09.12. 16:30 68% >70 km
Ortszeit Niederschlagsmenge Niederschlagsart
Mo, 09.12. 19:00 0.0 l/m2 in 12 Std. -
Mo, 09.12. 13:00 0.0 l/m2 in 6 Std. -
Mo, 09.12. 7:00 0.1 l/m2 in 12 Std. Regen
Mo, 09.12. 1:00 0.1 l/m2 in 6 Std. Regen
So, 08.12. 19:00 0.0 l/m2 in 12 Std. -
So, 08.12. 13:00 0.0 l/m2 in 6 Std. -
So, 08.12. 7:00 0.1 l/m2 in 12 Std. -
So, 08.12. 1:00 0.1 l/m2 in 6 Std. Sprühregen
Ortszeit Niederschlagsmenge Niederschlagsart
Mo, 09.12. 19:30 0.0 l/m2 in 1 Std. -
Mo, 09.12. 19:20 keine Meldung -
Mo, 09.12. 19:10 keine Meldung -
Mo, 09.12. 19:00 0.0 l/m2 in 1 Std. -
Mo, 09.12. 18:50 keine Meldung -
Mo, 09.12. 18:40 keine Meldung -
Mo, 09.12. 18:30 0.0 l/m2 in 1 Std. -
Mo, 09.12. 18:00 0.0 l/m2 in 1 Std. -
Mo, 09.12. 17:30 0.0 l/m2 in 1 Std. -
Mo, 09.12. 17:00 0.0 l/m2 in 1 Std. -
Mo, 09.12. 16:30 0.0 l/m2 in 1 Std. -
Ortszeit Stärke Spitze Richtung
km/h Bft. km/h Grad Sektor
Mo, 09.12. 19:00 9 2 39 270° W
Mo, 09.12. 13:00 11 2 29 250° W
Mo, 09.12. 7:00 7 2 54 120° SO
Mo, 09.12. 1:00 2 1 11 100° O
So, 08.12. 19:00 7 2 25 90° O
So, 08.12. 13:00 9 2 22 260° W
So, 08.12. 7:00 7 2 9 90° O
So, 08.12. 1:00 0 0 7 - -
Ortszeit Stärke Spitze Richtung
km/h Bft. km/h Grad Sektor
Mo, 09.12. 19:30 4 1 18 250° W
Mo, 09.12. 19:20 4 1 - 250° W
Mo, 09.12. 19:10 9 2 - 250° W
Mo, 09.12. 19:00 9 2 22 270° W
Mo, 09.12. 18:50 9 2 - 270° W
Mo, 09.12. 18:40 11 2 - 270° W
Mo, 09.12. 18:30 14 3 22 270° W
Mo, 09.12. 18:00 15 3 20 270° W
Mo, 09.12. 17:30 13 3 20 270° W
Mo, 09.12. 17:00 18 3 29 280° W
Mo, 09.12. 16:30 13 3 22 280° W
Ortszeit Untergrenze Bedeckung Gattung
total tief tief mittel hoch
Mo, 09.12. 19:00 1290 m 8/8 1/8 - - -
Mo, 09.12. 13:00 4500 m 8/8 8/8 - - -
Mo, 09.12. 7:00 2700 m 8/8 8/8 - - -
Mo, 09.12. 1:00 1800 m 8/8 8/8 - - -
So, 08.12. 19:00 7800 m 8/8 0/8 - - -
So, 08.12. 13:00 9000 m 3/8 0/8 - - -
So, 08.12. 7:00 9000 m 8/8 0/8 - - -
So, 08.12. 1:00 960 m 8/8 8/8 - - -
Ortszeit Bedeckungsgrad in Achtel und Wolkenuntergrenze
Mo, 09.12. 19:30 7(5700m) 8(6300m)
Mo, 09.12. 19:20 7(5700m) 8(6300m)
Mo, 09.12. 19:10 1(1350m) 7(5400m) 8(6300m)
Mo, 09.12. 19:00 1(1290m) 6(5400m) 8(6300m)
Mo, 09.12. 18:50 1(1290m) 6(5400m) 8(6300m)
Mo, 09.12. 18:40 2(1050m) 8(5400m) 8(6300m)
Mo, 09.12. 18:30 7(1110m) 8(5400m)
Mo, 09.12. 18:00 5(1200m) 7(5700m)
Mo, 09.12. 17:30 1(1470m) 5(3000m) 7(5700m)
Mo, 09.12. 17:00 2(1500m) 7(2400m) 8(5400m)
Mo, 09.12. 16:30 7(2400m) 8(2700m) 8(3000m)
Ortszeit Luftdruck NN (hPa) Tendenz (hPa in 3 Std.)
Mo, 09.12. 19:00 1009 + 1,9
Mo, 09.12. 13:00 1006 - 1,3
Mo, 09.12. 7:00 1008 - 0,3
Mo, 09.12. 1:00 1008 - 0,5
So, 08.12. 19:00 1011 - 1,4
So, 08.12. 13:00 1014 - 2,6
So, 08.12. 7:00 1019 - 1,4
So, 08.12. 1:00 1021 - 0,3
Ortszeit Luftdruck NN (hPa) Tendenz (hPa in 3 Std.)
Mo, 09.12. 19:30 1009 + 2,2
Mo, 09.12. 19:20 1009 keine Meldung
Mo, 09.12. 19:10 1009 keine Meldung
Mo, 09.12. 19:00 1009 + 1,9
Mo, 09.12. 18:50 1009 keine Meldung
Mo, 09.12. 18:40 1009 keine Meldung
Mo, 09.12. 18:30 1008 + 1,5
Mo, 09.12. 18:00 1008 + 1,4
Mo, 09.12. 17:30 1007 + 1,3
Mo, 09.12. 17:00 1007 + 0,5
Mo, 09.12. 16:30 1006 - 0,2
Ortszeit Schneehöhe (cm)
Mo, 09.12. 19:00 0
Mo, 09.12. 13:00 0
Mo, 09.12. 7:00 -
Mo, 09.12. 1:00 -
So, 08.12. 19:00 -
So, 08.12. 13:00 -
So, 08.12. 7:00 1
So, 08.12. 1:00 -
Ortszeit Schneehöhe (cm)
Mo, 09.12. 19:30 0
Mo, 09.12. 19:20 0
Mo, 09.12. 19:10 0
Mo, 09.12. 19:00 0
Mo, 09.12. 18:50 0
Mo, 09.12. 18:40 0
Mo, 09.12. 18:30 0
Mo, 09.12. 18:00 0
Mo, 09.12. 17:30 0
Mo, 09.12. 17:00 0
Mo, 09.12. 16:30 0
Link zu dieser Seite / Seite empfehlen

Das Wetter in ...